RJA101 LIMC-LIRF
Flight info
| Callsign | RJA101 |
|---|---|
| Flight time | 0h 55m |
| Altitude | 33000 |
| Route | ROBAS5W ROBAS DCT TINKU DCT XIBIL XIBIL3A |
| Aircraft | A320/M-SDE3FGHIRWY/LB1 |
Departure
| Time | 2026-05-06 15:04 |
|---|---|
| Airport | Milan Malpensa International Airport (LIMC) |
Arrival
| Time | 2026-05-06 15:59 |
|---|---|
| Airport | Rome–Fiumicino Leonardo da Vinci International Airport (LIRF) |
| Time | Latitude | Longitude | Altitude | Speed | Heading |
|---|---|---|---|---|---|
| 2026-05-06 14:29 | 45.62834 | 8.71440 | 752 ft | 0 kts | 169° |
| 2026-05-06 14:46 | 45.62836 | 8.71440 | 752 ft | 2 kts | 169° |
| 2026-05-06 14:46 | 45.62862 | 8.71433 | 751 ft | 4 kts | 169° |
| 2026-05-06 14:46 | 45.62888 | 8.71426 | 749 ft | 4 kts | 169° |
| 2026-05-06 14:46 | 45.62915 | 8.71418 | 749 ft | 4 kts | 169° |
| 2026-05-06 14:47 | 45.62923 | 8.71416 | 748 ft | 3 kts | 169° |
| 2026-05-06 14:52 | 45.62922 | 8.71416 | 748 ft | 0 kts | 169° |
| 2026-05-06 14:52 | 45.62917 | 8.71422 | 749 ft | 1 kts | 138° |
| 2026-05-06 14:53 | 45.62922 | 8.71437 | 751 ft | 5 kts | 67° |
| 2026-05-06 14:53 | 45.62938 | 8.71547 | 752 ft | 15 kts | 79° |
| 2026-05-06 14:53 | 45.62955 | 8.71679 | 752 ft | 14 kts | 79° |
| 2026-05-06 14:53 | 45.62896 | 8.71762 | 752 ft | 16 kts | 168° |
| 2026-05-06 14:54 | 45.62780 | 8.71795 | 751 ft | 19 kts | 169° |
| 2026-05-06 14:54 | 45.62643 | 8.71833 | 752 ft | 22 kts | 169° |
| 2026-05-06 14:54 | 45.62512 | 8.71869 | 748 ft | 20 kts | 169° |
| 2026-05-06 14:54 | 45.62371 | 8.71908 | 748 ft | 22 kts | 169° |
| 2026-05-06 14:55 | 45.62218 | 8.71951 | 750 ft | 23 kts | 168° |
| 2026-05-06 14:55 | 45.62070 | 8.71992 | 751 ft | 20 kts | 169° |
| 2026-05-06 14:55 | 45.61928 | 8.72031 | 750 ft | 22 kts | 169° |
| 2026-05-06 14:55 | 45.61775 | 8.72074 | 751 ft | 23 kts | 169° |
| 2026-05-06 14:56 | 45.61623 | 8.72115 | 752 ft | 20 kts | 169° |
| 2026-05-06 14:56 | 45.61478 | 8.72155 | 752 ft | 22 kts | 169° |
| 2026-05-06 14:56 | 45.61336 | 8.72195 | 752 ft | 22 kts | 169° |
| 2026-05-06 14:56 | 45.61179 | 8.72238 | 749 ft | 24 kts | 169° |
| 2026-05-06 14:57 | 45.61015 | 8.72283 | 750 ft | 25 kts | 169° |
| 2026-05-06 14:57 | 45.60851 | 8.72329 | 749 ft | 23 kts | 168° |
| 2026-05-06 14:57 | 45.60728 | 8.72362 | 753 ft | 17 kts | 169° |
| 2026-05-06 14:57 | 45.60640 | 8.72463 | 749 ft | 18 kts | 104° |
| 2026-05-06 14:58 | 45.60628 | 8.72647 | 751 ft | 19 kts | 95° |
| 2026-05-06 14:58 | 45.60613 | 8.72848 | 753 ft | 21 kts | 96° |
| 2026-05-06 14:58 | 45.60597 | 8.73062 | 754 ft | 22 kts | 95° |
| 2026-05-06 14:58 | 45.60621 | 8.73255 | 752 ft | 20 kts | 42° |
| 2026-05-06 14:59 | 45.60729 | 8.73324 | 750 ft | 17 kts | 22° |
| 2026-05-06 14:59 | 45.60847 | 8.73392 | 752 ft | 19 kts | 21° |
| 2026-05-06 14:59 | 45.60983 | 8.73383 | 753 ft | 20 kts | 349° |
| 2026-05-06 14:59 | 45.61118 | 8.73346 | 752 ft | 20 kts | 348° |
| 2026-05-06 15:00 | 45.61247 | 8.73310 | 750 ft | 19 kts | 349° |
| 2026-05-06 15:00 | 45.61387 | 8.73271 | 750 ft | 21 kts | 349° |
| 2026-05-06 15:00 | 45.61517 | 8.73236 | 753 ft | 16 kts | 348° |
| 2026-05-06 15:00 | 45.61608 | 8.73244 | 750 ft | 12 kts | 56° |
| 2026-05-06 15:01 | 45.61628 | 8.73355 | 753 ft | 11 kts | 75° |
| 2026-05-06 15:01 | 45.61629 | 8.73441 | 750 ft | 0 kts | 125° |
| 2026-05-06 15:02 | 45.61625 | 8.73450 | 751 ft | 3 kts | 124° |
| 2026-05-06 15:02 | 45.61605 | 8.73490 | 747 ft | 7 kts | 124° |
| 2026-05-06 15:03 | 45.61585 | 8.73575 | 749 ft | 12 kts | 98° |
| 2026-05-06 15:03 | 45.61606 | 8.73716 | 744 ft | 14 kts | 51° |
| 2026-05-06 15:03 | 45.61684 | 8.73718 | 745 ft | 4 kts | 348° |
| 2026-05-06 15:03 | 45.61753 | 8.73699 | 743 ft | 30 kts | 348° |
| 2026-05-06 15:04 | 45.62193 | 8.73575 | 745 ft | 95 kts | 349° |
| 2026-05-06 15:04 | 45.63007 | 8.73349 | 743 ft | 141 kts | 348° |
| 2026-05-06 15:04 | 45.64042 | 8.73067 | 1082 ft | 153 kts | 348° |
| 2026-05-06 15:04 | 45.65101 | 8.72904 | 1682 ft | 155 kts | 5° |
| 2026-05-06 15:05 | 45.66129 | 8.73391 | 2185 ft | 159 kts | 38° |
| 2026-05-06 15:05 | 45.66921 | 8.74503 | 2693 ft | 162 kts | 48° |
| 2026-05-06 15:05 | 45.67710 | 8.75710 | 3132 ft | 172 kts | 48° |
| 2026-05-06 15:05 | 45.68545 | 8.76996 | 3575 ft | 181 kts | 48° |
| 2026-05-06 15:06 | 45.69413 | 8.78340 | 4074 ft | 187 kts | 49° |
| 2026-05-06 15:06 | 45.70331 | 8.79762 | 4398 ft | 204 kts | 49° |
| 2026-05-06 15:06 | 45.71338 | 8.81296 | 4788 ft | 220 kts | 47° |
| 2026-05-06 15:06 | 45.72376 | 8.82997 | 5203 ft | 236 kts | 64° |
| 2026-05-06 15:07 | 45.72670 | 8.85273 | 5729 ft | 241 kts | 102° |
| 2026-05-06 15:07 | 45.72082 | 8.87498 | 6467 ft | 241 kts | 127° |
| 2026-05-06 15:07 | 45.71052 | 8.89439 | 7226 ft | 243 kts | 130° |
| 2026-05-06 15:07 | 45.70049 | 8.91368 | 7969 ft | 247 kts | 129° |
| 2026-05-06 15:08 | 45.69031 | 8.93367 | 8745 ft | 250 kts | 129° |
| 2026-05-06 15:08 | 45.67990 | 8.95423 | 9533 ft | 254 kts | 129° |
| 2026-05-06 15:08 | 45.66964 | 8.97455 | 10238 ft | 257 kts | 129° |
| 2026-05-06 15:08 | 45.65912 | 8.99534 | 10964 ft | 259 kts | 130° |
| 2026-05-06 15:09 | 45.64849 | 9.01632 | 11682 ft | 262 kts | 130° |
| 2026-05-06 15:09 | 45.63660 | 9.03641 | 12152 ft | 274 kts | 136° |
| 2026-05-06 15:09 | 45.62329 | 9.05734 | 12338 ft | 297 kts | 136° |
| 2026-05-06 15:09 | 45.60878 | 9.07998 | 12468 ft | 320 kts | 136° |
| 2026-05-06 15:10 | 45.59331 | 9.10416 | 12686 ft | 338 kts | 136° |
| 2026-05-06 15:10 | 45.57727 | 9.12932 | 13239 ft | 345 kts | 136° |
| 2026-05-06 15:10 | 45.56104 | 9.15484 | 13858 ft | 349 kts | 136° |
| 2026-05-06 15:10 | 45.54464 | 9.18066 | 14434 ft | 352 kts | 136° |
| 2026-05-06 15:11 | 45.52809 | 9.20672 | 15008 ft | 356 kts | 136° |
| 2026-05-06 15:11 | 45.51137 | 9.23299 | 15572 ft | 359 kts | 136° |
| 2026-05-06 15:11 | 45.49448 | 9.25946 | 16134 ft | 363 kts | 137° |
| 2026-05-06 15:11 | 45.47741 | 9.28620 | 16683 ft | 366 kts | 137° |
| 2026-05-06 15:12 | 45.46016 | 9.31315 | 17275 ft | 369 kts | 137° |
| 2026-05-06 15:12 | 45.44272 | 9.34033 | 17836 ft | 373 kts | 137° |
| 2026-05-06 15:12 | 45.42510 | 9.36776 | 18288 ft | 378 kts | 138° |
| 2026-05-06 15:12 | 45.40726 | 9.39557 | 18970 ft | 382 kts | 138° |
| 2026-05-06 15:13 | 45.38924 | 9.42364 | 19482 ft | 385 kts | 139° |
| 2026-05-06 15:13 | 45.37110 | 9.45183 | 19976 ft | 388 kts | 139° |
| 2026-05-06 15:13 | 45.35281 | 9.48017 | 20480 ft | 390 kts | 139° |
| 2026-05-06 15:13 | 45.33438 | 9.50869 | 20961 ft | 393 kts | 140° |
| 2026-05-06 15:14 | 45.31584 | 9.53738 | 21430 ft | 395 kts | 140° |
| 2026-05-06 15:14 | 45.29717 | 9.56624 | 21887 ft | 397 kts | 140° |
| 2026-05-06 15:14 | 45.27841 | 9.59519 | 22346 ft | 400 kts | 140° |
| 2026-05-06 15:14 | 45.25946 | 9.62437 | 22802 ft | 402 kts | 140° |
| 2026-05-06 15:15 | 45.24045 | 9.65358 | 23249 ft | 404 kts | 141° |
| 2026-05-06 15:15 | 45.22155 | 9.68273 | 23615 ft | 407 kts | 140° |
| 2026-05-06 15:15 | 45.20145 | 9.71063 | 23994 ft | 401 kts | 148° |
| 2026-05-06 15:15 | 45.17876 | 9.73304 | 24391 ft | 394 kts | 158° |
| 2026-05-06 15:16 | 45.15422 | 9.74948 | 24774 ft | 388 kts | 165° |
| 2026-05-06 15:16 | 45.12919 | 9.76399 | 25181 ft | 389 kts | 166° |
| 2026-05-06 15:16 | 45.10405 | 9.77851 | 25593 ft | 391 kts | 166° |
| 2026-05-06 15:16 | 45.07878 | 9.79311 | 26000 ft | 392 kts | 166° |
| 2026-05-06 15:17 | 45.05351 | 9.80773 | 26381 ft | 394 kts | 166° |
| 2026-05-06 15:17 | 45.02807 | 9.82247 | 26759 ft | 395 kts | 166° |
| 2026-05-06 15:17 | 45.00261 | 9.83728 | 27150 ft | 397 kts | 166° |
| 2026-05-06 15:17 | 44.97699 | 9.85217 | 27531 ft | 399 kts | 166° |
| 2026-05-06 15:18 | 44.95127 | 9.86709 | 27909 ft | 400 kts | 166° |
| 2026-05-06 15:18 | 44.92544 | 9.88207 | 28316 ft | 401 kts | 166° |
| 2026-05-06 15:18 | 44.89955 | 9.89708 | 28702 ft | 403 kts | 166° |
| 2026-05-06 15:18 | 44.87389 | 9.91191 | 29071 ft | 404 kts | 166° |
| 2026-05-06 15:19 | 44.84777 | 9.92697 | 29440 ft | 406 kts | 166° |
| 2026-05-06 15:19 | 44.82149 | 9.94209 | 29711 ft | 410 kts | 166° |
| 2026-05-06 15:19 | 44.79504 | 9.95733 | 30022 ft | 412 kts | 166° |
| 2026-05-06 15:19 | 44.76854 | 9.97260 | 30429 ft | 411 kts | 166° |
| 2026-05-06 15:20 | 44.74213 | 9.98783 | 30820 ft | 410 kts | 166° |
| 2026-05-06 15:20 | 44.71579 | 10.00301 | 31229 ft | 409 kts | 166° |
| 2026-05-06 15:20 | 44.68951 | 10.01813 | 31684 ft | 407 kts | 166° |
| 2026-05-06 15:20 | 44.66336 | 10.03314 | 32145 ft | 405 kts | 166° |
| 2026-05-06 15:21 | 44.63730 | 10.04811 | 32600 ft | 404 kts | 166° |
| 2026-05-06 15:21 | 44.61128 | 10.06303 | 32846 ft | 404 kts | 166° |
| 2026-05-06 15:21 | 44.58536 | 10.07784 | 32880 ft | 401 kts | 166° |
| 2026-05-06 15:22 | 44.54248 | 10.10231 | 32848 ft | 401 kts | 166° |
| 2026-05-06 15:22 | 44.49042 | 10.13187 | 32920 ft | 405 kts | 166° |
| 2026-05-06 15:23 | 44.43809 | 10.16161 | 32917 ft | 406 kts | 166° |
| 2026-05-06 15:23 | 44.38570 | 10.19140 | 32926 ft | 406 kts | 166° |
| 2026-05-06 15:24 | 44.33325 | 10.22118 | 32907 ft | 406 kts | 166° |
| 2026-05-06 15:24 | 44.28084 | 10.25080 | 32925 ft | 407 kts | 166° |
| 2026-05-06 15:25 | 44.22831 | 10.28047 | 32950 ft | 407 kts | 166° |
| 2026-05-06 15:25 | 44.17575 | 10.31010 | 32954 ft | 407 kts | 166° |
| 2026-05-06 15:26 | 44.12320 | 10.33968 | 32919 ft | 407 kts | 165° |
| 2026-05-06 15:26 | 44.07051 | 10.36922 | 32925 ft | 408 kts | 165° |
| 2026-05-06 15:27 | 44.01779 | 10.39876 | 32924 ft | 408 kts | 165° |
| 2026-05-06 15:27 | 43.96499 | 10.42822 | 32938 ft | 410 kts | 165° |
| 2026-05-06 15:28 | 43.91206 | 10.45777 | 32957 ft | 410 kts | 165° |
| 2026-05-06 15:28 | 43.85911 | 10.48739 | 32965 ft | 409 kts | 165° |
| 2026-05-06 15:29 | 43.80626 | 10.51681 | 32966 ft | 409 kts | 165° |
| 2026-05-06 15:29 | 43.75374 | 10.54567 | 32966 ft | 407 kts | 167° |
| 2026-05-06 15:30 | 43.70045 | 10.57136 | 32954 ft | 404 kts | 169° |
| 2026-05-06 15:30 | 43.64691 | 10.59520 | 32917 ft | 404 kts | 169° |
| 2026-05-06 15:31 | 43.59334 | 10.61948 | 32924 ft | 405 kts | 168° |
| 2026-05-06 15:31 | 43.53980 | 10.64421 | 32929 ft | 406 kts | 168° |
| 2026-05-06 15:32 | 43.45948 | 10.68157 | 32936 ft | 406 kts | 168° |
| 2026-05-06 15:32 | 43.40594 | 10.70631 | 32939 ft | 406 kts | 168° |
| 2026-05-06 15:33 | 43.35224 | 10.73097 | 32951 ft | 406 kts | 168° |
| 2026-05-06 15:33 | 43.29858 | 10.75560 | 32938 ft | 406 kts | 168° |
| 2026-05-06 15:34 | 43.24498 | 10.78019 | 32947 ft | 406 kts | 168° |
| 2026-05-06 15:34 | 43.19146 | 10.80465 | 32956 ft | 405 kts | 168° |
| 2026-05-06 15:35 | 43.13825 | 10.82895 | 32949 ft | 405 kts | 168° |
| 2026-05-06 15:35 | 43.08468 | 10.85343 | 32945 ft | 405 kts | 169° |
| 2026-05-06 15:36 | 43.03104 | 10.87789 | 32935 ft | 407 kts | 169° |
| 2026-05-06 15:36 | 42.97719 | 10.90234 | 32938 ft | 408 kts | 169° |
| 2026-05-06 15:37 | 42.95025 | 10.91455 | 32769 ft | 408 kts | 169° |
| 2026-05-06 15:37 | 42.92351 | 10.92671 | 32368 ft | 402 kts | 169° |
| 2026-05-06 15:37 | 42.89720 | 10.93868 | 31933 ft | 396 kts | 169° |
| 2026-05-06 15:37 | 42.87120 | 10.95051 | 31522 ft | 391 kts | 169° |
| 2026-05-06 15:38 | 42.84554 | 10.96214 | 31120 ft | 386 kts | 169° |
| 2026-05-06 15:38 | 42.82048 | 10.97530 | 30724 ft | 390 kts | 161° |
| 2026-05-06 15:38 | 42.79754 | 10.99570 | 30331 ft | 401 kts | 148° |
| 2026-05-06 15:38 | 42.77815 | 11.02378 | 29943 ft | 414 kts | 134° |
| 2026-05-06 15:39 | 42.76229 | 11.05674 | 29479 ft | 416 kts | 131° |
| 2026-05-06 15:39 | 42.74678 | 11.08987 | 29035 ft | 414 kts | 131° |
| 2026-05-06 15:39 | 42.73155 | 11.12247 | 28600 ft | 412 kts | 131° |
| 2026-05-06 15:39 | 42.71622 | 11.15520 | 28158 ft | 409 kts | 131° |
| 2026-05-06 15:40 | 42.70096 | 11.18766 | 27731 ft | 406 kts | 131° |
| 2026-05-06 15:40 | 42.68574 | 11.21983 | 27300 ft | 404 kts | 131° |
| 2026-05-06 15:40 | 42.67054 | 11.25181 | 26844 ft | 401 kts | 130° |
| 2026-05-06 15:40 | 42.65544 | 11.28355 | 26416 ft | 399 kts | 130° |
| 2026-05-06 15:41 | 42.64039 | 11.31516 | 25961 ft | 398 kts | 130° |
| 2026-05-06 15:41 | 42.62534 | 11.34670 | 25520 ft | 397 kts | 130° |
| 2026-05-06 15:41 | 42.61035 | 11.37810 | 25093 ft | 395 kts | 130° |
| 2026-05-06 15:41 | 42.59542 | 11.40939 | 24657 ft | 394 kts | 130° |
| 2026-05-06 15:42 | 42.58054 | 11.44053 | 24233 ft | 393 kts | 130° |
| 2026-05-06 15:42 | 42.56575 | 11.47143 | 23783 ft | 387 kts | 130° |
| 2026-05-06 15:42 | 42.54965 | 11.49941 | 23275 ft | 365 kts | 143° |
| 2026-05-06 15:42 | 42.53021 | 11.52010 | 22738 ft | 347 kts | 157° |
| 2026-05-06 15:43 | 42.50869 | 11.53347 | 22201 ft | 334 kts | 168° |
| 2026-05-06 15:43 | 42.48683 | 11.54368 | 21689 ft | 331 kts | 167° |
| 2026-05-06 15:43 | 42.46548 | 11.55372 | 21181 ft | 327 kts | 167° |
| 2026-05-06 15:43 | 42.44428 | 11.56371 | 20676 ft | 318 kts | 167° |
| 2026-05-06 15:44 | 42.42363 | 11.57345 | 20172 ft | 310 kts | 166° |
| 2026-05-06 15:44 | 42.40348 | 11.58295 | 19687 ft | 303 kts | 166° |
| 2026-05-06 15:44 | 42.38374 | 11.59222 | 19209 ft | 297 kts | 166° |
| 2026-05-06 15:44 | 42.36435 | 11.60129 | 18728 ft | 292 kts | 166° |
| 2026-05-06 15:45 | 42.34531 | 11.61017 | 18282 ft | 287 kts | 165° |
| 2026-05-06 15:45 | 42.32655 | 11.61890 | 17750 ft | 283 kts | 165° |
| 2026-05-06 15:45 | 42.30803 | 11.62749 | 17222 ft | 280 kts | 165° |
| 2026-05-06 15:45 | 42.28967 | 11.63602 | 16701 ft | 278 kts | 165° |
| 2026-05-06 15:46 | 42.27142 | 11.64450 | 16189 ft | 277 kts | 165° |
| 2026-05-06 15:46 | 42.25312 | 11.65295 | 15691 ft | 281 kts | 166° |
| 2026-05-06 15:46 | 42.23435 | 11.66118 | 15195 ft | 286 kts | 166° |
| 2026-05-06 15:46 | 42.21536 | 11.66930 | 14702 ft | 285 kts | 166° |
| 2026-05-06 15:47 | 42.19658 | 11.67730 | 14208 ft | 280 kts | 166° |
| 2026-05-06 15:47 | 42.17810 | 11.68516 | 13733 ft | 277 kts | 166° |
| 2026-05-06 15:47 | 42.15987 | 11.69296 | 13203 ft | 273 kts | 166° |
| 2026-05-06 15:47 | 42.14177 | 11.70072 | 12686 ft | 276 kts | 166° |
| 2026-05-06 15:48 | 42.12327 | 11.70858 | 12171 ft | 282 kts | 166° |
| 2026-05-06 15:48 | 42.10442 | 11.71660 | 11659 ft | 287 kts | 166° |
| 2026-05-06 15:48 | 42.08523 | 11.72480 | 11143 ft | 292 kts | 166° |
| 2026-05-06 15:48 | 42.06694 | 11.73625 | 10597 ft | 293 kts | 144° |
| 2026-05-06 15:49 | 42.05345 | 11.75679 | 10072 ft | 296 kts | 124° |
| 2026-05-06 15:49 | 42.04635 | 11.78272 | 9515 ft | 299 kts | 101° |
| 2026-05-06 15:49 | 42.04751 | 11.81056 | 8946 ft | 301 kts | 75° |
| 2026-05-06 15:49 | 42.05507 | 11.83666 | 8377 ft | 299 kts | 69° |
| 2026-05-06 15:50 | 42.06313 | 11.86231 | 7821 ft | 296 kts | 69° |
| 2026-05-06 15:50 | 42.07112 | 11.88778 | 7290 ft | 295 kts | 69° |
| 2026-05-06 15:50 | 42.07911 | 11.91340 | 6840 ft | 299 kts | 69° |
| 2026-05-06 15:50 | 42.08719 | 11.93942 | 6380 ft | 303 kts | 70° |
| 2026-05-06 15:51 | 42.09539 | 11.96581 | 6023 ft | 305 kts | 70° |
| 2026-05-06 15:51 | 42.10333 | 11.99166 | 5908 ft | 294 kts | 69° |
| 2026-05-06 15:51 | 42.11111 | 12.01671 | 5747 ft | 286 kts | 70° |
| 2026-05-06 15:51 | 42.11633 | 12.04175 | 5584 ft | 273 kts | 89° |
| 2026-05-06 15:52 | 42.11461 | 12.06644 | 5481 ft | 255 kts | 111° |
| 2026-05-06 15:52 | 42.10718 | 12.08692 | 5414 ft | 235 kts | 132° |
| 2026-05-06 15:52 | 42.09622 | 12.10184 | 5274 ft | 216 kts | 146° |
| 2026-05-06 15:52 | 42.08484 | 12.11436 | 5043 ft | 208 kts | 146° |
| 2026-05-06 15:53 | 42.07374 | 12.12661 | 4803 ft | 207 kts | 144° |
| 2026-05-06 15:53 | 42.06259 | 12.13885 | 4536 ft | 207 kts | 143° |
| 2026-05-06 15:53 | 42.05150 | 12.15102 | 4278 ft | 204 kts | 146° |
| 2026-05-06 15:53 | 42.04057 | 12.16304 | 4027 ft | 201 kts | 146° |
| 2026-05-06 15:54 | 42.02978 | 12.17491 | 3785 ft | 199 kts | 144° |
| 2026-05-06 15:54 | 42.01915 | 12.18644 | 3550 ft | 193 kts | 149° |
| 2026-05-06 15:54 | 42.00746 | 12.19347 | 3343 ft | 179 kts | 164° |
| 2026-05-06 15:54 | 41.99583 | 12.19851 | 3108 ft | 171 kts | 165° |
| 2026-05-06 15:55 | 41.98470 | 12.20322 | 2885 ft | 165 kts | 164° |
| 2026-05-06 15:55 | 41.97386 | 12.20778 | 2668 ft | 162 kts | 165° |
| 2026-05-06 15:55 | 41.96328 | 12.21224 | 2464 ft | 154 kts | 165° |
| 2026-05-06 15:55 | 41.95347 | 12.21637 | 2260 ft | 141 kts | 165° |
| 2026-05-06 15:56 | 41.94433 | 12.22021 | 2076 ft | 135 kts | 165° |
| 2026-05-06 15:56 | 41.93554 | 12.22390 | 1899 ft | 133 kts | 165° |
| 2026-05-06 15:56 | 41.92660 | 12.22766 | 1723 ft | 133 kts | 165° |
| 2026-05-06 15:56 | 41.91792 | 12.23130 | 1547 ft | 132 kts | 165° |
| 2026-05-06 15:57 | 41.90924 | 12.23494 | 1375 ft | 130 kts | 165° |
| 2026-05-06 15:57 | 41.90070 | 12.23852 | 1197 ft | 128 kts | 165° |
| 2026-05-06 15:57 | 41.89195 | 12.24216 | 1028 ft | 133 kts | 162° |
| 2026-05-06 15:57 | 41.88299 | 12.24580 | 822 ft | 135 kts | 164° |
| 2026-05-06 15:58 | 41.87416 | 12.24942 | 652 ft | 132 kts | 158° |
| 2026-05-06 15:58 | 41.86555 | 12.25333 | 470 ft | 129 kts | 161° |
| 2026-05-06 15:58 | 41.85705 | 12.25690 | 275 ft | 129 kts | 161° |
| 2026-05-06 15:58 | 41.84843 | 12.26051 | 133 ft | 130 kts | 161° |
| 2026-05-06 15:59 | 41.83988 | 12.26405 | 18 ft | 121 kts | 162° |
| 2026-05-06 15:59 | 41.83325 | 12.26685 | 12 ft | 76 kts | 162° |
| 2026-05-06 15:59 | 41.82886 | 12.26872 | 13 ft | 61 kts | 162° |
| 2026-05-06 15:59 | 41.82515 | 12.27027 | 11 ft | 43 kts | 162° |
| 2026-05-06 16:00 | 41.82244 | 12.27131 | 10 ft | 38 kts | 172° |
| 2026-05-06 16:00 | 41.82016 | 12.27127 | 11 ft | 21 kts | 193° |
| 2026-05-06 16:00 | 41.81902 | 12.27093 | 11 ft | 14 kts | 194° |
| 2026-05-06 16:00 | 41.81804 | 12.27063 | 11 ft | 5 kts | 192° |
| 2026-05-06 16:01 | 41.81803 | 12.27063 | 11 ft | 0 kts | 192° |
| 2026-05-06 16:02 | 41.81788 | 12.27059 | 11 ft | 6 kts | 192° |
| 2026-05-06 16:02 | 41.81719 | 12.27044 | 12 ft | 14 kts | 182° |
| 2026-05-06 16:02 | 41.81601 | 12.27082 | 12 ft | 21 kts | 162° |
| 2026-05-06 16:03 | 41.81455 | 12.27142 | 13 ft | 23 kts | 163° |
| 2026-05-06 16:03 | 41.81366 | 12.27181 | 12 ft | 20 kts | 161° |
| 2026-05-06 16:03 | 41.81244 | 12.27232 | 12 ft | 17 kts | 164° |
| 2026-05-06 16:03 | 41.81083 | 12.27299 | 12 ft | 19 kts | 162° |
| 2026-05-06 16:04 | 41.80997 | 12.27337 | 12 ft | 16 kts | 163° |
| 2026-05-06 16:04 | 41.80883 | 12.27345 | 12 ft | 15 kts | 190° |
| 2026-05-06 16:04 | 41.80774 | 12.27320 | 12 ft | 17 kts | 189° |
| 2026-05-06 16:04 | 41.80666 | 12.27250 | 13 ft | 19 kts | 237° |
| 2026-05-06 16:05 | 41.80619 | 12.27092 | 13 ft | 18 kts | 249° |
| 2026-05-06 16:05 | 41.80572 | 12.26925 | 15 ft | 20 kts | 250° |
| 2026-05-06 16:05 | 41.80521 | 12.26741 | 14 ft | 22 kts | 250° |
| 2026-05-06 16:05 | 41.80471 | 12.26556 | 17 ft | 19 kts | 250° |
| 2026-05-06 16:06 | 41.80426 | 12.26399 | 17 ft | 15 kts | 239° |
| 2026-05-06 16:06 | 41.80329 | 12.26380 | 14 ft | 14 kts | 160° |
| 2026-05-06 16:06 | 41.80231 | 12.26411 | 14 ft | 15 kts | 186° |
| 2026-05-06 16:06 | 41.80131 | 12.26440 | 14 ft | 15 kts | 158° |
| 2026-05-06 16:07 | 41.80100 | 12.26530 | 15 ft | 13 kts | 72° |
| 2026-05-06 16:07 | 41.80067 | 12.26611 | 14 ft | 12 kts | 159° |
| 2026-05-06 16:07 | 41.79988 | 12.26649 | 14 ft | 9 kts | 160° |
| 2026-05-06 16:07 | 41.79952 | 12.26642 | 14 ft | 5 kts | 242° |
| 2026-05-06 16:08 | 41.79943 | 12.26609 | 14 ft | 1 kts | 251° |
| 2026-05-06 16:08 | 41.79940 | 12.26599 | 15 ft | 0 kts | 249° |